Time;durP1;ratioP1;P1;durP2;ratioP2;P2;SDS_P1;SDS_P2;PMS_P1;PMS_P2;Temp;Humidity;BMP_temperature;BMP_pressure;BME280_temperature;BME280_humidity;BME280_pressure;Samples;Min_cycle;Max_cycle;Signal;HPM_P1;HPM_P2
2022/09/05 00:02:47;;;;;;;12.37;5.47;;;;;;;15.87;61.65;101306.72;124827;1098;102938;-79
2022/09/05 00:06:04;;;;;;;10.20;5.10;;;;;;;15.86;61.59;101306.69;124833;1099;104323;-77
2022/09/05 00:09:01;;;;;;;10.30;5.20;;;;;;;15.84;62.28;101303.11;124756;1099;102756;-77
2022/09/05 00:11:56;;;;;;;10.90;5.30;;;;;;;15.83;62.18;101296.02;124847;1099;102242;-78
2022/09/05 00:14:59;;;;;;;13.57;5.10;;;;;;;15.84;61.47;101298.70;124760;1099;102919;-77
2022/09/05 00:18:09;;;;;;;11.10;5.30;;;;;;;15.86;61.97;101296.09;124801;1099;104235;-77
2022/09/05 00:21:12;;;;;;;12.07;4.70;;;;;;;15.85;61.69;101294.30;124789;1099;104201;-77
2022/09/05 00:24:14;;;;;;;10.67;4.80;;;;;;;15.85;61.61;101294.30;124860;1099;104156;-77
2022/09/05 00:27:08;;;;;;;13.63;5.27;;;;;;;15.81;62.28;101290.68;124738;1099;104162;-78
2022/09/05 00:30:14;;;;;;;13.88;5.45;;;;;;;15.80;62.75;101283.62;124825;1098;104089;-78
2022/09/05 00:33:22;;;;;;;13.45;5.20;;;;;;;15.77;61.89;101287.06;124760;1099;102784;-77
2022/09/05 00:36:27;;;;;;;10.47;4.90;;;;;;;15.73;62.33;101282.50;124856;1099;101893;-77
2022/09/05 00:39:21;;;;;;;11.37;5.47;;;;;;;15.69;62.20;101285.94;124748;1099;102300;-78
2022/09/05 00:42:13;;;;;;;12.63;5.42;;;;;;;15.65;62.81;101281.41;124765;1099;104187;-77
2022/09/05 00:45:07;;;;;;;12.03;5.70;;;;;;;15.59;62.72;101286.53;124810;1099;104060;-77
2022/09/05 00:48:03;;;;;;;11.35;5.40;;;;;;;15.54;63.38;101288.16;124759;1098;102159;-77
2022/09/05 00:51:14;;;;;;;12.63;5.77;;;;;;;15.48;62.50;101286.22;124777;1099;104188;-78
2022/09/05 00:54:18;;;;;;;12.83;5.70;;;;;;;15.43;63.36;101275.52;124783;1097;104335;-77
2022/09/05 00:57:29;;;;;;;13.83;5.97;;;;;;;15.37;63.20;101277.98;124751;1099;104115;-77
2022/09/05 01:00:21;;;;;;;11.60;5.40;;;;;;;15.34;63.85;101274.37;124777;1099;104207;-78
2022/09/05 01:03:36;;;;;;;13.90;5.60;;;;;;;15.31;63.37;101267.23;124799;1099;104201;-77
2022/09/05 01:06:47;;;;;;;12.10;5.90;;;;;;;15.29;63.76;101271.59;124794;1099;104261;-77
2022/09/05 01:09:51;;;;;;;13.20;5.95;;;;;;;15.24;64.02;101275.86;124737;1099;104430;-78
2022/09/05 01:12:57;;;;;;;11.47;5.90;;;;;;;15.18;63.78;101273.92;124744;1099;108810;-77
2022/09/05 01:15:57;;;;;;;15.57;6.17;;;;;;;15.14;63.37;101279.07;124840;1099;104050;-78
2022/09/05 01:18:59;;;;;;;14.50;6.73;;;;;;;15.06;64.42;101285.02;124795;1099;104645;-77
2022/09/05 01:21:59;;;;;;;12.60;6.40;;;;;;;14.98;64.51;101281.26;124853;1098;102778;-78
2022/09/05 01:25:03;;;;;;;14.93;6.23;;;;;;;14.92;64.50;101279.31;124786;1099;102852;-77
2022/09/05 01:27:59;;;;;;;13.30;6.23;;;;;;;14.91;64.17;101274.90;124780;1099;102310;-77
2022/09/05 01:30:57;;;;;;;14.10;6.37;;;;;;;14.90;64.25;101277.50;124822;1097;104155;-77
2022/09/05 01:33:52;;;;;;;15.77;6.90;;;;;;;14.87;64.43;101278.28;124810;1099;104192;-77
2022/09/05 01:36:51;;;;;;;14.60;6.00;;;;;;;14.84;64.79;101278.19;124799;1098;104579;-77
2022/09/05 01:39:48;;;;;;;14.30;6.33;;;;;;;14.81;65.23;101282.50;124806;1099;104423;-77
2022/09/05 01:42:43;;;;;;;14.40;7.07;;;;;;;14.75;65.23;101283.19;124784;1098;104160;-77
2022/09/05 01:45:41;;;;;;;;;;;;;;;14.68;65.25;101281.23;124832;1098;104191;-77
2022/09/05 01:48:36;;;;;;;15.10;6.60;;;;;;;14.60;64.56;101283.63;124814;1098;102787;-77
2022/09/05 01:51:37;;;;;;;13.23;6.37;;;;;;;14.54;65.03;101291.31;124814;1099;101896;-78
2022/09/05 01:54:37;;;;;;;19.47;6.50;;;;;;;14.47;65.06;101287.56;124824;1099;102248;-77
2022/09/05 01:57:34;;;;;;;14.53;6.30;;;;;;;14.44;64.99;101291.86;124827;1099;104188;-78
2022/09/05 02:00:30;;;;;;;14.20;6.07;;;;;;;14.38;65.50;101288.18;124742;1099;104322;-77
2022/09/05 02:03:33;;;;;;;15.87;6.33;;;;;;;14.34;65.78;101283.63;124891;1098;102326;-77
2022/09/05 02:06:34;;;;;;;13.80;6.27;;;;;;;14.29;66.18;101286.95;124815;1098;104150;-77
2022/09/05 02:09:41;;;;;;;14.60;6.30;;;;;;;14.24;65.61;101289.44;124816;1098;104175;-77
2022/09/05 02:12:35;;;;;;;15.87;6.53;;;;;;;14.20;66.03;101277.89;124752;1099;104251;-77
2022/09/05 02:15:24;;;;;;;;;;;;;;;14.18;65.98;101279.59;124854;1099;104153;-77
2022/09/05 02:18:22;;;;;;;13.27;6.10;;;;;;;14.15;65.98;101281.25;124811;1099;104163;-77
2022/09/05 02:21:21;;;;;;;13.20;6.37;;;;;;;14.09;65.79;101278.40;124805;1097;104193;-77
2022/09/05 02:24:18;;;;;;;16.23;6.33;;;;;;;14.07;66.42;101285.34;124795;1099;118912;-77
2022/09/05 02:27:31;;;;;;;16.13;6.73;;;;;;;14.00;66.02;101282.50;124801;1099;104233;-77
2022/09/05 02:30:23;;;;;;;14.33;6.87;;;;;;;13.92;66.21;101286.62;124806;1099;104195;-77
2022/09/05 02:33:21;;;;;;;21.70;7.45;;;;;;;13.86;66.54;101282.89;124839;1098;102877;-77
2022/09/05 02:36:14;;;;;;;17.30;6.90;;;;;;;13.84;66.34;101285.47;124818;1099;104195;-77
2022/09/05 02:39:15;;;;;;;19.63;7.20;;;;;;;13.84;66.70;101281.08;124787;1099;104319;-77
2022/09/05 02:42:24;;;;;;;16.20;7.03;;;;;;;13.83;66.71;101284.55;124791;1099;102906;-77
2022/09/05 02:45:26;;;;;;;17.60;7.47;;;;;;;13.79;66.57;101290.58;124798;1099;102866;-77
2022/09/05 02:48:22;;;;;;;16.27;6.90;;;;;;;13.75;66.52;101283.39;124836;1099;104217;-77
2022/09/05 02:51:18;;;;;;;18.57;7.10;;;;;;;13.71;67.12;101292.03;124713;1099;102193;-77
2022/09/05 02:54:12;;;;;;;17.37;7.33;;;;;;;13.65;67.34;101279.55;124818;1099;103058;-77
2022/09/05 02:57:27;;;;;;;15.70;6.90;;;;;;;13.60;67.61;101282.84;124765;1097;104229;-77
2022/09/05 03:00:19;;;;;;;14.73;6.60;;;;;;;13.55;67.99;101287.95;124810;1099;102803;-77
2022/09/05 03:03:19;;;;;;;15.20;6.73;;;;;;;13.49;67.78;101290.37;124854;1099;104360;-78
2022/09/05 03:06:25;;;;;;;14.93;7.33;;;;;;;13.42;68.03;101294.53;124816;1099;102833;-77
2022/09/05 03:09:29;;;;;;;18.63;7.10;;;;;;;13.36;67.88;101296.94;124807;1099;102977;-77
2022/09/05 03:12:50;;;;;;;15.58;6.95;;;;;;;13.31;68.12;101302.00;125911;1099;104474;-77
2022/09/05 03:16:21;;;;;;;14.87;6.83;;;;;;;13.26;68.53;101305.30;124796;1099;104232;-77
2022/09/05 03:19:56;;;;;;;18.27;6.73;;;;;;;13.19;68.32;101304.17;124779;1099;104328;-77
2022/09/05 03:23:12;;;;;;;16.30;7.20;;;;;;;13.11;68.08;101303.00;124816;1099;104239;-78
2022/09/05 03:26:49;;;;;;;19.10;7.15;;;;;;;13.08;68.42;101311.67;124749;1099;102902;-77
2022/09/05 03:30:02;;;;;;;18.93;8.00;;;;;;;13.03;68.40;101314.98;124810;1099;104344;-77
2022/09/05 03:37:28;;;;;;;22.90;10.07;;;;;;;12.97;68.55;101318.27;124837;1099;112318;-77
2022/09/05 03:40:55;;;;;;;18.23;8.53;;;;;;;12.93;69.02;101322.53;124738;1099;104281;-78
2022/09/05 03:44:05;;;;;;;20.30;8.55;;;;;;;12.90;69.14;101325.05;124296;1099;104696;-77
2022/09/05 03:47:33;;;;;;;18.50;8.10;;;;;;;12.89;69.23;101317.08;124977;1099;104156;-77
2022/09/05 03:50:38;;;;;;;19.23;7.80;;;;;;;12.87;69.07;101321.37;124821;1099;104179;-77
2022/09/05 03:53:57;;;;;;;15.20;7.25;;;;;;;12.85;69.42;101321.30;124792;1099;104242;-77
2022/09/05 03:57:15;;;;;;;21.63;8.17;;;;;;;12.85;69.59;101336.22;124836;1099;103813;-77
2022/09/05 04:00:20;;;;;;;19.17;7.87;;;;;;;12.81;69.19;101334.30;124745;1099;104211;-77
2022/09/05 04:03:21;;;;;;;19.83;7.67;;;;;;;12.76;70.22;101331.47;124759;1098;102675;-76
2022/09/05 04:06:18;;;;;;;19.17;8.40;;;;;;;12.72;70.14;101330.47;124768;1099;104057;-76
2022/09/05 04:09:16;;;;;;;20.33;8.00;;;;;;;12.68;70.01;101328.53;124688;1099;112697;-76
2022/09/05 04:12:16;;;;;;;20.67;7.80;;;;;;;12.65;70.62;101327.52;124721;1099;104163;-76
2022/09/05 04:15:08;;;;;;;16.87;7.40;;;;;;;12.61;70.38;101336.16;124871;1098;103451;-76
2022/09/05 04:18:00;;;;;;;14.97;7.00;;;;;;;12.57;70.65;101336.03;124798;1099;104281;-77
2022/09/05 04:20:54;;;;;;;18.10;8.10;;;;;;;12.58;70.79;101337.80;124834;1099;104303;-76
2022/09/05 04:24:02;;;;;;;19.13;7.73;;;;;;;12.58;71.04;101337.80;124768;1098;104245;-76
2022/09/05 04:27:15;;;;;;;17.30;7.60;;;;;;;12.56;70.74;101344.75;124811;1099;102164;-76
2022/09/05 04:30:18;;;;;;;16.87;7.17;;;;;;;12.57;71.23;101338.66;124805;1099;118482;-76
2022/09/05 04:33:19;;;;;;;20.17;7.70;;;;;;;12.57;70.66;101346.56;124773;1099;104322;-76
2022/09/05 04:36:18;;;;;;;22.40;7.83;;;;;;;12.60;71.30;101345.77;124804;1099;104162;-76
2022/09/05 04:39:27;;;;;;;19.17;7.57;;;;;;;12.60;71.24;101351.03;124734;1099;102893;-76
2022/09/05 04:42:23;;;;;;;19.23;8.30;;;;;;;12.63;71.30;101348.52;124827;1099;104156;-76
2022/09/05 04:45:15;;;;;;;21.23;8.10;;;;;;;12.66;71.06;101347.77;124769;1098;104242;-76
2022/09/05 04:48:09;;;;;;;20.10;7.80;;;;;;;12.74;71.12;101351.59;124760;1099;104188;-76
2022/09/05 04:51:08;;;;;;;21.03;7.97;;;;;;;12.81;71.19;101355.36;124756;1099;102842;-76
2022/09/05 04:54:11;;;;;;;20.83;8.13;;;;;;;12.82;71.25;101347.52;124726;1099;104252;-77
2022/09/05 04:57:13;;;;;;;19.13;7.73;;;;;;;12.89;71.13;101359.23;124790;1099;104172;-76
2022/09/05 05:00:06;;;;;;;18.53;7.97;;;;;;;12.94;71.16;101361.19;124757;1099;103637;-76
2022/09/05 05:02:59;;;;;;;19.03;8.47;;;;;;;12.96;71.30;101361.25;124749;1099;101924;-76
2022/09/05 05:05:59;;;;;;;21.97;8.90;;;;;;;12.99;71.08;101357.84;124748;1099;104214;-76
2022/09/05 05:08:56;;;;;;;20.83;8.10;;;;;;;13.03;71.04;101355.39;124721;1099;104213;-76
2022/09/05 05:11:56;;;;;;;20.07;8.57;;;;;;;13.11;71.30;101356.58;124796;1099;104235;-76
2022/09/05 05:14:52;;;;;;;22.80;8.20;;;;;;;13.17;70.81;101366.47;124794;1099;104598;-76
2022/09/05 05:17:51;;;;;;;18.30;7.75;;;;;;;13.16;71.13;101350.61;124786;1099;104229;-76
2022/09/05 05:20:50;;;;;;;23.67;7.73;;;;;;;13.27;70.44;101360.70;124827;1099;104221;-76
2022/09/05 05:23:43;;;;;;;21.57;7.90;;;;;;;13.33;71.10;101367.99;124800;1098;104166;-75
2022/09/05 05:26:41;;;;;;;16.93;6.80;;;;;;;13.40;71.12;101370.03;124824;1099;101864;-75
2022/09/05 05:29:38;;;;;;;18.53;7.27;;;;;;;13.47;70.75;101365.88;124865;1099;104418;-77
2022/09/05 05:32:34;;;;;;;18.60;6.97;;;;;;;13.56;71.14;101367.98;124845;1099;108285;-77
2022/09/05 05:35:29;;;;;;;18.77;7.03;;;;;;;13.62;70.74;101379.64;124847;1099;104236;-76
2022/09/05 05:38:29;;;;;;;15.00;6.33;;;;;;;13.68;70.99;101375.43;124856;1099;104229;-77
2022/09/05 05:41:24;;;;;;;16.50;7.03;;;;;;;13.71;70.60;101378.18;124791;1099;104159;-77
2022/09/05 05:44:18;;;;;;;14.83;6.10;;;;;;;13.75;70.60;101378.34;124785;1099;104255;-77
2022/09/05 05:47:18;;;;;;;18.32;6.80;;;;;;;13.82;70.27;101388.30;124760;1098;104092;-76
2022/09/05 05:50:33;;;;;;;17.07;6.93;;;;;;;13.91;70.02;101384.19;124821;1098;104229;-76
2022/09/05 05:53:43;;;;;;;17.93;6.63;;;;;;;14.00;70.49;101387.16;124837;1099;111587;-77
2022/09/05 05:57:04;;;;;;;21.60;6.67;;;;;;;14.08;70.42;101383.04;124893;1099;104322;-77
2022/09/05 06:00:19;;;;;;;16.70;6.53;;;;;;;14.17;69.75;101383.37;124885;1099;104166;-77
2022/09/05 06:03:43;;;;;;;16.10;6.67;;;;;;;14.24;69.77;101379.19;124860;1099;102781;-78
2022/09/05 06:06:47;;;;;;;14.90;5.53;;;;;;;14.32;70.15;101390.02;124840;1099;104199;-77
2022/09/05 06:10:03;;;;;;;14.67;5.43;;;;;;;14.39;70.10;101395.56;126511;1098;104160;-78
2022/09/05 06:13:36;;;;;;;13.20;6.20;;;;;;;14.46;69.12;101386.13;124870;1098;104159;-77
2022/09/05 06:16:52;;;;;;;17.30;6.33;;;;;;;14.55;69.79;101385.52;124805;1097;103087;-77
2022/09/05 06:20:19;;;;;;;18.23;5.53;;;;;;;14.66;68.69;101394.77;124855;1099;104163;-77
2022/09/05 06:23:46;;;;;;;20.17;6.40;;;;;;;14.77;68.81;101389.80;124803;1099;104175;-77
2022/09/05 06:27:22;;;;;;;16.43;5.77;;;;;;;14.86;69.27;101382.17;124882;1098;104201;-76
2022/09/05 06:30:19;;;;;;;14.53;6.00;;;;;;;15.01;68.23;101392.35;126254;1098;101983;-77
2022/09/05 06:33:23;;;;;;;13.83;5.40;;;;;;;15.13;68.45;101399.78;124862;1099;104274;-76
2022/09/05 06:36:34;;;;;;;15.10;5.73;;;;;;;15.24;68.22;101395.72;124825;1099;104229;-76
2022/09/05 06:39:39;;;;;;;14.07;4.90;;;;;;;15.36;67.70;101405.76;124886;1099;104322;-78
2022/09/05 06:42:41;;;;;;;13.73;5.33;;;;;;;15.47;67.81;101403.44;125818;1099;102887;-76
2022/09/05 06:45:49;;;;;;;11.93;5.00;;;;;;;15.59;66.52;101413.50;124791;1099;104163;-77
2022/09/05 06:48:48;;;;;;;13.37;5.37;;;;;;;15.75;66.49;101415.76;124825;1099;104194;-77
2022/09/05 06:52:13;;;;;;;16.73;5.20;;;;;;;15.91;66.62;101418.85;124855;1099;104319;-77
2022/09/05 06:55:41;;;;;;;12.57;5.33;;;;;;;16.07;66.55;101409.62;124750;1099;104156;-77
2022/09/05 06:58:57;;;;;;;13.53;5.47;;;;;;;16.23;66.68;101413.57;126148;1097;104153;-78
2022/09/05 07:01:54;;;;;;;13.07;4.90;;;;;;;16.43;66.83;101411.45;126659;1098;101786;-77
2022/09/05 07:05:03;;;;;;;11.60;4.80;;;;;;;16.63;66.27;101404.03;124930;1099;105296;-78
2022/09/05 07:11:25;;;;;;;13.50;4.87;;;;;;;16.91;65.26;101407.37;124905;1099;104216;-78
2022/09/05 07:14:23;;;;;;;10.67;4.67;;;;;;;17.02;64.73;101409.43;124830;1099;104160;-79
2022/09/05 07:17:21;;;;;;;12.80;4.90;;;;;;;17.17;64.70;101407.98;124959;1099;104261;-77
2022/09/05 07:20:31;;;;;;;14.50;4.53;;;;;;;17.35;64.88;101400.45;125009;1099;102270;-79
2022/09/05 07:23:52;;;;;;;11.07;4.47;;;;;;;17.48;64.76;101391.00;125010;1099;102201;-78
2022/09/05 07:27:10;;;;;;;11.27;5.10;;;;;;;17.61;64.60;101400.14;124982;1099;104248;-78
2022/09/05 07:30:13;;;;;;;10.40;4.60;;;;;;;17.83;65.12;101398.81;124908;1099;104163;-78
2022/09/05 07:33:08;;;;;;;11.33;4.20;;;;;;;18.03;63.68;101398.33;124914;1099;104256;-77
2022/09/05 07:36:06;;;;;;;16.80;4.57;;;;;;;18.19;63.80;101402.20;124878;1099;103055;-78
2022/09/05 07:39:02;;;;;;;11.93;4.30;;;;;;;18.32;62.47;101399.80;124867;1099;104286;-77
2022/09/05 07:41:56;;;;;;;14.07;4.40;;;;;;;18.49;63.09;101394.75;124904;1099;104159;-77
2022/09/05 07:44:59;;;;;;;11.70;4.60;;;;;;;18.61;61.46;101391.42;124862;1099;102544;-78
2022/09/05 07:47:59;;;;;;;10.93;4.40;;;;;;;18.81;62.02;101391.76;126086;1098;102208;-78
2022/09/05 07:50:53;;;;;;;10.07;4.10;;;;;;;18.96;61.25;101380.48;124865;1099;104200;-78
2022/09/05 07:53:42;;;;;;;;;;;;;;;19.11;59.98;101387.81;124875;1099;102793;-77
2022/09/05 07:56:49;;;;;;;11.17;4.07;;;;;;;19.23;60.57;101389.77;124828;1098;102824;-78
2022/09/05 07:59:45;;;;;;;7.33;3.80;;;;;;;19.34;59.46;101385.48;124759;1099;104226;-78
2022/09/05 08:02:39;;;;;;;7.90;4.20;;;;;;;19.48;59.38;101384.78;124936;1099;104354;-78
2022/09/05 08:05:37;;;;;;;18.75;4.30;;;;;;;19.57;59.63;101390.20;124853;1099;104294;-78
2022/09/05 08:08:33;;;;;;;9.23;3.60;;;;;;;19.71;58.79;101393.95;124946;1097;104406;-76
2022/09/05 08:11:26;;;;;;;11.73;4.00;;;;;;;19.77;58.71;101373.63;124826;1099;102432;-76
2022/09/05 08:14:28;;;;;;;7.37;3.57;;;;;;;19.83;57.07;101387.01;124884;1099;104208;-76
2022/09/05 08:17:24;;;;;;;8.70;3.47;;;;;;;19.86;56.32;101379.94;126064;1098;101895;-75
2022/09/05 08:20:29;;;;;;;13.47;3.63;;;;;;;19.96;56.19;101383.63;124906;1098;104245;-77
2022/09/05 08:23:36;;;;;;;5.93;3.50;;;;;;;20.06;54.51;101385.49;124824;1099;104382;-76
2022/09/05 08:26:36;;;;;;;14.63;3.47;;;;;;;20.16;55.21;101375.81;124927;1099;102950;-77
2022/09/05 08:29:37;;;;;;;10.53;3.83;;;;;;;20.14;53.74;101379.36;126062;1098;104147;-76
2022/09/05 08:35:51;;;;;;;11.90;4.80;;;;;;;20.02;54.44;101380.99;124819;1099;104222;-77
2022/09/05 08:38:43;;;;;;;11.30;3.90;;;;;;;20.16;53.54;101381.14;124852;1099;104249;-76
2022/09/05 08:41:46;;;;;;;7.53;3.30;;;;;;;20.25;51.69;101375.02;124916;1098;102944;-76
2022/09/05 08:44:42;;;;;;;7.30;3.47;;;;;;;20.34;53.72;101377.78;124795;1099;104496;-76
2022/09/05 08:47:42;;;;;;;5.75;3.50;;;;;;;20.39;52.67;101368.05;124961;1099;102841;-77
2022/09/05 08:50:50;;;;;;;9.87;3.83;;;;;;;20.41;52.83;101358.31;124818;1099;103337;-77
2022/09/05 08:53:59;;;;;;;5.47;3.83;;;;;;;20.48;52.84;101361.91;124812;1099;102441;-77
2022/09/05 08:57:07;;;;;;;8.27;3.50;;;;;;;20.48;51.31;101368.13;124859;1099;102806;-77
2022/09/05 09:00:06;;;;;;;9.93;3.30;;;;;;;20.46;51.07;101361.02;124827;1099;104166;-77
2022/09/05 09:03:24;;;;;;;8.23;3.50;;;;;;;20.56;50.61;101367.31;124822;1099;102187;-77
2022/09/05 09:06:34;;;;;;;9.67;3.60;;;;;;;20.60;50.98;101363.77;124825;1099;102490;-77
2022/09/05 09:09:38;;;;;;;6.30;3.80;;;;;;;20.58;50.79;101353.09;124868;1099;108125;-77
2022/09/05 09:13:01;;;;;;;11.80;3.70;;;;;;;20.64;50.91;101352.26;126086;1098;102114;-76
2022/09/05 09:16:03;;;;;;;28.07;4.30;;;;;;;20.75;50.65;101358.59;124810;1099;104172;-77
2022/09/05 09:19:08;;;;;;;7.23;3.40;;;;;;;20.82;49.12;101352.43;124886;1099;102788;-77
2022/09/05 09:22:10;;;;;;;8.57;3.40;;;;;;;20.87;49.08;101360.47;124854;1099;102322;-76
2022/09/05 09:25:11;;;;;;;11.10;3.60;;;;;;;21.01;50.27;101348.09;124848;1099;104191;-75
2022/09/05 09:28:24;;;;;;;6.00;3.27;;;;;;;21.13;48.98;101352.63;125450;1096;104214;-76
2022/09/05 09:31:23;;;;;;;6.20;2.87;;;;;;;21.13;47.94;101355.30;126074;1098;104364;-77
2022/09/05 09:35:05;;;;;;;6.73;3.10;;;;;;;21.23;48.21;101355.35;124876;1099;104291;-75
2022/09/05 09:38:21;;;;;;;10.27;3.20;;;;;;;21.34;46.93;101350.95;124395;1099;104303;-76
2022/09/05 09:41:44;;;;;;;9.30;3.10;;;;;;;21.42;47.54;101350.98;124869;1099;104150;-77
2022/09/05 09:45:30;;;;;;;5.70;3.20;;;;;;;21.43;46.44;101351.00;124886;1099;102477;-77
2022/09/05 09:48:52;;;;;;;6.70;3.20;;;;;;;21.42;45.35;101349.20;124868;1099;104640;-77
2022/09/05 09:52:01;;;;;;;5.17;2.70;;;;;;;21.52;44.87;101347.52;124906;1099;104175;-76
2022/09/05 09:55:24;;;;;;;5.70;2.77;;;;;;;21.64;41.87;101343.98;124927;1099;102819;-76
2022/09/05 09:58:45;;;;;;;13.00;2.87;;;;;;;21.81;44.27;101341.37;124698;1099;104322;-77
2022/09/05 10:01:51;;;;;;;5.85;3.05;;;;;;;21.89;43.77;101335.16;124994;1099;104188;-77
2022/09/05 10:05:04;;;;;;;6.50;2.90;;;;;;;22.01;42.67;101331.61;124924;1099;104233;-77
2022/09/05 10:08:11;;;;;;;10.60;4.00;;;;;;;22.14;43.22;101339.64;125006;1099;104182;-77
2022/09/05 10:11:25;;;;;;;9.87;3.27;;;;;;;22.26;42.50;101335.20;126184;1096;117863;-77
2022/09/05 10:14:50;;;;;;;8.17;2.80;;;;;;;22.39;41.98;101333.47;124887;1098;102851;-76
2022/09/05 10:18:15;;;;;;;3.22;2.60;;;;;;;22.39;41.35;101324.54;124889;1099;104252;-76
2022/09/05 10:21:17;;;;;;;11.37;2.77;;;;;;;22.56;41.88;101328.13;124911;1099;104232;-76
2022/09/05 10:24:39;;;;;;;7.37;2.73;;;;;;;22.65;41.75;101320.98;124834;1099;104172;-76
2022/09/05 10:27:46;;;;;;;15.07;2.97;;;;;;;22.70;42.29;101312.03;124742;1099;104264;-76
2022/09/05 10:31:07;;;;;;;8.20;3.20;;;;;;;22.74;41.91;101310.27;124802;1099;104497;-77
2022/09/05 10:34:12;;;;;;;6.33;3.13;;;;;;;22.81;42.03;101303.98;124854;1099;104220;-76
2022/09/05 10:37:06;;;;;;;7.20;2.97;;;;;;;22.71;40.12;101307.59;125002;1098;101812;-76
2022/09/05 10:40:02;;;;;;;6.55;2.98;;;;;;;22.57;40.50;101313.84;125314;1099;104274;-76
2022/09/05 10:42:54;;;;;;;8.53;3.07;;;;;;;22.54;40.16;101304.94;124851;1098;104156;-77
2022/09/05 10:45:59;;;;;;;6.70;3.10;;;;;;;22.39;40.07;101304.06;124792;1099;102922;-77
2022/09/05 10:48:53;;;;;;;8.57;3.10;;;;;;;22.40;40.18;101307.62;124812;1099;102324;-81
2022/09/05 10:51:49;;;;;;;5.10;2.92;;;;;;;22.42;39.70;101306.73;124993;1099;104871;-78
2022/09/05 10:55:01;;;;;;;2.93;2.43;;;;;;;22.44;39.45;101309.41;126247;1099;101895;-78
2022/09/05 10:58:10;;;;;;;3.97;2.70;;;;;;;22.44;39.08;101298.72;125017;1099;104734;-78
2022/09/05 11:01:24;;;;;;;5.70;2.87;;;;;;;22.53;39.15;101297.80;125403;1099;104182;-79
2022/09/05 11:04:25;;;;;;;8.43;3.00;;;;;;;22.61;39.14;101299.58;125774;1099;104251;-77
2022/09/05 11:07:32;;;;;;;6.53;3.17;;;;;;;22.70;39.64;101297.77;124885;1099;104245;-79
2022/09/05 11:10:28;;;;;;;5.80;2.60;;;;;;;22.70;37.87;101304.00;124953;1099;104195;-78
2022/09/05 11:13:46;;;;;;;7.03;2.70;;;;;;;22.66;37.41;101288.88;124915;1099;103565;-79
2022/09/05 11:16:45;;;;;;;5.03;2.77;;;;;;;22.71;37.23;101288.87;124783;1099;104229;-78
2022/09/05 11:19:57;;;;;;;5.97;2.90;;;;;;;22.82;38.19;101292.40;124854;1099;104213;-78
2022/09/05 11:22:55;;;;;;;5.93;2.60;;;;;;;22.89;38.31;101290.59;124876;1098;111940;-78
2022/09/05 11:25:46;;;;;;;5.30;2.63;;;;;;;22.97;38.62;101289.69;125002;1099;104172;-78
2022/09/05 11:28:52;;;;;;;6.90;3.20;;;;;;;23.04;38.32;101276.28;125070;1099;104290;-78
2022/09/05 11:32:03;;;;;;;5.73;2.70;;;;;;;22.74;37.48;101284.39;124918;1097;102304;-78
2022/09/05 11:35:20;;;;;;;6.83;2.97;;;;;;;22.67;38.40;101271.03;124952;1098;102775;-78
2022/09/05 11:38:50;;;;;;;8.73;3.17;;;;;;;22.68;37.80;101273.70;124777;1099;104204;-77
2022/09/05 11:42:21;;;;;;;4.80;2.80;;;;;;;22.67;37.65;101271.91;124823;1099;104156;-76
2022/09/05 11:45:48;;;;;;;10.27;2.73;;;;;;;22.59;37.36;101265.70;124670;1098;104157;-77
2022/09/05 11:49:08;;;;;;;7.47;3.07;;;;;;;22.58;37.72;101262.14;124748;1099;102528;-77
2022/09/05 11:52:43;;;;;;;4.47;2.70;;;;;;;22.70;37.92;101263.00;124908;1098;104169;-76
2022/09/05 11:56:05;;;;;;;5.27;3.07;;;;;;;22.70;36.99;101265.67;124857;1099;102956;-77
2022/09/05 11:59:17;;;;;;;5.43;3.37;;;;;;;22.67;36.44;101260.33;125204;1099;104178;-79
2022/09/05 12:02:32;;;;;;;5.20;2.93;;;;;;;22.66;36.47;101261.21;124893;1099;102742;-77
2022/09/05 12:05:51;;;;;;;8.90;3.27;;;;;;;22.59;36.03;101253.23;125053;1099;104225;-78
2022/09/05 12:09:11;;;;;;;5.53;2.93;;;;;;;22.53;35.93;101237.20;126368;1097;104114;-79
2022/09/05 12:12:25;;;;;;;4.70;2.80;;;;;;;22.64;36.13;101254.98;124961;1099;104188;-77
2022/09/05 12:15:32;;;;;;;9.03;3.13;;;;;;;22.63;35.63;101251.43;125735;1099;104184;-78
2022/09/05 12:18:34;;;;;;;5.93;3.00;;;;;;;22.54;35.58;101254.13;124919;1099;104309;-75
2022/09/05 12:21:34;;;;;;;5.60;2.87;;;;;;;22.52;35.11;101246.10;124874;1099;104089;-77
2022/09/05 12:24:33;;;;;;;6.57;3.10;;;;;;;22.52;35.36;101243.43;124879;1099;104620;-77
2022/09/05 12:27:28;;;;;;;11.67;3.47;;;;;;;22.53;35.19;101250.57;124836;1098;102312;-77
2022/09/05 12:30:25;;;;;;;7.33;3.20;;;;;;;22.56;34.80;101247.89;124852;1099;104179;-77
2022/09/05 12:33:30;;;;;;;6.47;3.03;;;;;;;22.59;34.91;101246.97;124878;1099;102783;-77
2022/09/05 12:36:34;;;;;;;5.87;3.00;;;;;;;22.58;34.37;101235.39;125885;1099;104051;-77
2022/09/05 12:39:33;;;;;;;8.30;2.85;;;;;;;22.63;34.96;101237.18;124953;1099;102165;-77
2022/09/05 12:42:42;;;;;;;7.63;3.30;;;;;;;22.66;34.86;101242.48;125031;1099;104172;-78
2022/09/05 12:45:44;;;;;;;7.10;2.80;;;;;;;22.59;35.02;101231.84;125031;1099;102395;-78
2022/09/05 12:48:39;;;;;;;4.07;2.67;;;;;;;22.52;34.01;101234.53;124876;1099;102192;-78
2022/09/05 12:51:45;;;;;;;7.70;2.87;;;;;;;22.53;34.62;101230.94;124824;1099;104232;-77
2022/09/05 12:54:41;;;;;;;8.85;3.20;;;;;;;22.49;34.29;101230.06;124868;1099;104341;-78
2022/09/05 12:57:37;;;;;;;8.97;2.80;;;;;;;22.52;33.36;101226.50;124791;1099;104163;-78
2022/09/05 13:00:27;;;;;;;9.93;2.67;;;;;;;22.54;34.27;101224.70;124823;1099;104348;-78
2022/09/05 13:03:26;;;;;;;6.67;2.70;;;;;;;22.61;34.20;101218.46;124907;1099;103544;-79
2022/09/05 13:06:27;;;;;;;6.90;2.73;;;;;;;22.61;34.49;101211.31;124869;1099;108300;-76
2022/09/05 13:09:24;;;;;;;4.20;2.50;;;;;;;22.60;34.79;101212.20;124862;1098;104192;-77
2022/09/05 13:12:19;;;;;;;5.70;2.80;;;;;;;22.58;34.66;101213.13;124776;1099;102235;-77
2022/09/05 13:15:19;;;;;;;4.60;2.97;;;;;;;22.43;34.01;101211.36;124847;1099;104275;-78
2022/09/05 13:18:14;;;;;;;6.37;2.87;;;;;;;22.42;33.17;101210.48;124784;1099;104296;-77
2022/09/05 13:21:12;;;;;;;8.73;2.87;;;;;;;22.39;33.50;101207.80;124772;1099;104166;-77
2022/09/05 13:24:10;;;;;;;5.83;2.80;;;;;;;22.37;33.69;101206.02;124933;1099;104185;-77
2022/09/05 13:27:19;;;;;;;5.73;2.80;;;;;;;22.36;32.89;101207.81;124844;1099;111184;-77
2022/09/05 13:30:14;;;;;;;6.80;2.83;;;;;;;22.35;32.26;101211.37;124893;1099;101863;-78
2022/09/05 13:33:23;;;;;;;4.60;2.90;;;;;;;22.34;32.35;101206.91;124972;1099;104331;-77
2022/09/05 13:36:18;;;;;;;4.73;2.50;;;;;;;22.37;32.72;101204.22;124874;1099;104329;-79
2022/09/05 13:39:16;;;;;;;13.93;3.30;;;;;;;22.37;32.13;101208.69;124819;1099;104259;-77
2022/09/05 13:42:17;;;;;;;6.30;2.97;;;;;;;22.34;31.87;101201.55;124865;1099;104612;-76
2022/09/05 13:45:09;;;;;;;8.47;3.00;;;;;;;22.30;32.37;101204.20;124906;1099;104147;-77
2022/09/05 13:48:26;;;;;;;4.57;2.97;;;;;;;22.23;32.68;101198.86;124777;1098;118940;-77
2022/09/05 13:54:43;;;;;;;5.23;2.60;;;;;;;22.15;32.36;101207.80;125867;1098;102162;-77
2022/09/05 13:57:40;;;;;;;4.47;2.70;;;;;;;22.15;32.23;101197.11;124906;1099;102650;-77
2022/09/05 14:01:06;;;;;;;5.00;2.70;;;;;;;22.16;33.25;101191.77;126162;1099;102384;-76
2022/09/05 14:04:26;;;;;;;4.90;2.97;;;;;;;22.22;32.85;101194.43;124814;1099;102186;-77
2022/09/05 14:07:51;;;;;;;6.07;2.70;;;;;;;22.25;32.18;101191.75;125017;1099;104264;-77
2022/09/05 14:11:09;;;;;;;4.85;2.85;;;;;;;22.32;32.01;101206.02;126366;1098;102015;-78